createdAt,value
2018-05-29T00:04:30.112Z,24.78
2018-05-29T00:07:34.035Z,24.82
2018-05-29T00:15:45.970Z,24.72
2018-05-29T00:18:48.917Z,24.72
2018-05-29T00:21:51.510Z,24.57
2018-05-29T00:24:55.276Z,24.45
2018-05-29T00:27:57.817Z,24.50
2018-05-29T00:31:01.649Z,24.42
2018-05-29T00:34:06.666Z,24.46
2018-05-29T00:37:09.411Z,24.51
2018-05-29T00:40:12.750Z,24.41
2018-05-29T00:43:15.331Z,23.99
2018-05-29T00:46:17.912Z,24.13
2018-05-29T00:49:22.068Z,24.23
2018-05-29T00:52:26.310Z,24.18
2018-05-29T00:55:38.949Z,24.06
2018-05-29T00:58:46.162Z,23.96
2018-05-29T01:01:48.956Z,24.01
2018-05-29T01:04:52.609Z,23.98
2018-05-29T01:07:56.772Z,23.86
2018-05-29T01:10:59.552Z,23.92
2018-05-29T01:14:02.219Z,23.85
2018-05-29T01:17:06.653Z,23.76
2018-05-29T01:20:11.383Z,23.81
2018-05-29T01:23:19.033Z,23.74
2018-05-29T01:26:21.827Z,23.65
2018-05-29T01:29:24.610Z,23.50
2018-05-29T01:32:29.889Z,23.57
2018-05-29T01:35:34.336Z,23.49
2018-05-29T01:38:39.489Z,23.52
2018-05-29T01:41:44.294Z,23.47
2018-05-29T01:44:49.621Z,23.51
2018-05-29T01:47:57.720Z,23.39
2018-05-29T01:51:01.057Z,23.48
2018-05-29T01:54:03.780Z,23.21
2018-05-29T01:57:07.453Z,23.27
2018-05-29T02:00:11.819Z,23.02
2018-05-29T02:03:16.913Z,23.08
2018-05-29T02:06:19.961Z,23.12
2018-05-29T02:09:23.773Z,22.84
2018-05-29T02:12:28.293Z,22.97
2018-05-29T02:15:33.694Z,22.90
2018-05-29T02:18:37.027Z,23.00
2018-05-29T02:21:39.676Z,22.90
2018-05-29T02:24:43.276Z,22.85
2018-05-29T02:27:46.020Z,22.82
2018-05-29T02:30:48.652Z,22.83
2018-05-29T02:33:51.987Z,22.88
2018-05-29T02:36:54.630Z,22.99
2018-05-29T02:39:57.540Z,22.78
2018-05-29T02:43:00.169Z,22.43
2018-05-29T02:46:03.610Z,22.66
2018-05-29T02:49:07.760Z,22.53
2018-05-29T02:52:12.237Z,22.58
2018-05-29T02:55:16.109Z,22.60
2018-05-29T02:58:18.725Z,22.34
2018-05-29T03:01:22.233Z,22.67
2018-05-29T03:04:24.834Z,22.32
2018-05-29T03:07:27.489Z,22.05
2018-05-29T03:10:30.113Z,22.16
2018-05-29T03:13:32.714Z,22.20
2018-05-29T03:16:35.277Z,22.40
2018-05-29T03:19:37.855Z,22.42
2018-05-29T03:22:40.433Z,22.29
2018-05-29T03:25:44.131Z,22.36
2018-05-29T03:28:46.729Z,22.33
2018-05-29T03:31:49.416Z,22.16
2018-05-29T03:34:52.043Z,22.16
2018-05-29T03:37:54.790Z,22.32
2018-05-29T03:40:58.388Z,22.32
2018-05-29T03:44:01.104Z,22.37
2018-05-29T03:47:03.740Z,22.35
2018-05-29T03:50:06.897Z,22.21
2018-05-29T03:53:09.477Z,22.19
2018-05-29T03:56:12.033Z,22.29
2018-05-29T03:59:14.663Z,22.36
2018-05-29T04:02:17.283Z,22.31
2018-05-29T04:05:19.937Z,22.22
2018-05-29T04:08:22.512Z,22.25
2018-05-29T04:11:25.263Z,22.31
2018-05-29T04:14:27.871Z,22.26
2018-05-29T04:17:31.060Z,22.24
2018-05-29T04:20:33.623Z,22.15
2018-05-29T04:23:36.220Z,22.19
2018-05-29T04:26:38.825Z,22.16
2018-05-29T04:29:41.687Z,22.08
2018-05-29T04:32:44.302Z,22.13
2018-05-29T04:35:47.774Z,22.09
2018-05-29T04:38:50.352Z,22.16
2018-05-29T04:41:53.058Z,22.04
2018-05-29T04:44:55.688Z,22.10
2018-05-29T04:47:58.442Z,22.09
2018-05-29T04:51:02.333Z,22.16
2018-05-29T04:54:05.087Z,22.09
2018-05-29T05:00:16.251Z,22.28
2018-05-29T05:03:19.818Z,22.29
2018-05-29T05:06:23.527Z,22.29
2018-05-29T05:09:26.104Z,22.38
2018-05-29T05:12:28.616Z,22.46
2018-05-29T05:15:31.333Z,22.47
2018-05-29T05:18:38.767Z,22.32
2018-05-29T05:21:43.231Z,22.38
2018-05-29T05:24:45.823Z,22.49
2018-05-29T05:27:51.443Z,22.62
2018-05-29T05:34:41.810Z,22.56
2018-05-29T05:46:25.441Z,22.78
2018-05-29T05:49:28.158Z,22.98
2018-05-29T05:52:30.794Z,23.02
2018-05-29T05:55:34.101Z,22.96
2018-05-29T05:58:36.795Z,23.08
2018-05-29T06:01:39.538Z,23.18
2018-05-29T06:04:42.171Z,23.26
2018-05-29T06:07:45.841Z,23.34
2018-05-29T06:10:49.285Z,23.40
2018-05-29T06:13:51.817Z,23.59
2018-05-29T06:16:54.355Z,23.73
2018-05-29T06:19:56.855Z,23.76
2018-05-29T06:22:59.365Z,23.74
2018-05-29T06:26:01.849Z,23.81
2018-05-29T06:29:04.391Z,23.85
2018-05-29T06:32:06.867Z,23.94
2018-05-29T06:35:09.371Z,24.05
2018-05-29T06:38:11.876Z,24.18
2018-05-29T06:41:14.374Z,24.27
2018-05-29T06:44:16.883Z,24.33
2018-05-29T06:47:19.377Z,24.48
2018-05-29T06:50:21.920Z,24.59
2018-05-29T06:53:24.578Z,24.75
2018-05-29T06:56:28.384Z,24.97
2018-05-29T06:59:30.929Z,25.08
2018-05-29T07:02:33.413Z,25.35
2018-05-29T07:05:35.922Z,25.55
2018-05-29T07:08:38.401Z,25.67
2018-05-29T07:11:40.968Z,25.70
2018-05-29T07:14:43.500Z,25.74
2018-05-29T07:17:45.999Z,25.82
2018-05-29T07:20:48.498Z,25.91
2018-05-29T07:23:51.028Z,25.92
2018-05-29T07:26:53.541Z,25.99
2018-05-29T07:29:56.067Z,26.02
2018-05-29T07:32:58.656Z,26.12
2018-05-29T07:36:01.172Z,26.21
2018-05-29T07:39:03.681Z,26.27
2018-05-29T07:42:06.254Z,26.34
2018-05-29T07:45:08.845Z,26.47
2018-05-29T07:48:11.293Z,26.61
2018-05-29T07:51:13.827Z,26.66
2018-05-29T07:54:16.328Z,26.80
2018-05-29T07:57:18.831Z,26.88
2018-05-29T08:00:21.365Z,26.87
2018-05-29T08:03:23.886Z,27.07
2018-05-29T08:06:26.406Z,27.20
2018-05-29T08:09:28.885Z,27.40
2018-05-29T08:12:31.380Z,27.53
2018-05-29T08:15:33.977Z,27.75
2018-05-29T08:18:36.543Z,27.85
2018-05-29T08:21:39.081Z,27.92
2018-05-29T08:24:41.681Z,28.04
2018-05-29T08:27:44.183Z,28.11
2018-05-29T08:30:46.709Z,28.25
2018-05-29T08:33:49.196Z,28.37
2018-05-29T08:36:51.701Z,28.37
2018-05-29T08:40:15.814Z,28.47
2018-05-29T08:43:19.425Z,28.67
2018-05-29T08:46:23.540Z,28.83
2018-05-29T08:49:26.886Z,28.80
2018-05-29T08:52:29.384Z,28.88
2018-05-29T08:55:31.917Z,28.93
2018-05-29T08:58:34.434Z,28.99
2018-05-29T09:01:36.951Z,29.23
2018-05-29T09:04:39.703Z,29.32
2018-05-29T09:07:42.247Z,29.52
2018-05-29T09:10:44.790Z,29.62
2018-05-29T09:13:47.349Z,29.72
2018-05-29T09:16:49.952Z,29.89
2018-05-29T09:19:52.544Z,29.99
2018-05-29T09:22:55.086Z,30.13
2018-05-29T09:25:57.719Z,30.22
2018-05-29T09:29:00.317Z,30.38
2018-05-29T09:32:03.013Z,30.42
2018-05-29T09:35:10.004Z,30.56
2018-05-29T09:38:12.757Z,30.69
2018-05-29T09:41:15.573Z,30.70
2018-05-29T09:44:18.838Z,30.93
2018-05-29T09:47:21.558Z,31.12
2018-05-29T09:50:24.121Z,31.24
2018-05-29T09:53:26.635Z,31.38
2018-05-29T09:56:29.111Z,31.48
2018-05-29T09:59:31.599Z,31.45
2018-05-29T10:02:34.133Z,31.57
2018-05-29T10:05:36.717Z,31.75
2018-05-29T10:08:39.191Z,31.76
2018-05-29T10:11:41.703Z,31.97
2018-05-29T10:14:44.250Z,32.16
2018-05-29T10:17:46.789Z,32.04
2018-05-29T13:42:50.605Z,35.45
2018-05-29T13:46:28.760Z,35.37
2018-05-29T13:49:31.371Z,35.41
2018-05-29T13:52:34.089Z,35.69
2018-05-29T13:55:37.013Z,35.55
2018-05-29T13:58:40.725Z,35.41
2018-05-29T14:01:43.416Z,35.27
2018-05-29T14:04:46.462Z,35.22
2018-05-29T14:07:49.023Z,35.01
2018-05-29T14:10:54.986Z,35.10
2018-05-29T14:13:58.747Z,34.74
2018-05-29T14:56:47.779Z,34.35
2018-05-29T15:04:11.846Z,34.15
2018-05-29T15:07:31.022Z,34.14
2018-05-29T15:10:33.938Z,34.10
2018-05-29T15:13:40.577Z,34.03
2018-05-29T15:16:46.474Z,33.92
2018-05-29T15:19:50.435Z,33.74
2018-05-29T15:22:56.784Z,33.78
2018-05-29T15:25:59.809Z,33.45
2018-05-29T15:35:37.737Z,33.30
2018-05-29T15:38:40.732Z,33.37
2018-05-29T15:41:43.372Z,33.15
2018-05-29T15:44:46.411Z,33.08
2018-05-29T15:51:00.590Z,32.89
2018-05-29T15:54:03.886Z,32.88
2018-05-29T15:57:07.625Z,32.72
2018-05-29T16:00:10.631Z,32.80
2018-05-29T16:03:14.156Z,32.67
2018-05-29T16:06:17.707Z,32.91
2018-05-29T16:09:20.910Z,32.57
2018-05-29T16:12:25.415Z,32.49
2018-05-29T16:15:28.193Z,32.29
2018-05-29T16:18:31.560Z,32.35
2018-05-29T16:21:34.265Z,32.19
2018-05-29T16:24:47.317Z,32.13
2018-05-29T16:28:08.186Z,32.15
2018-05-29T16:48:50.810Z,31.53
2018-05-29T16:51:54.329Z,31.42
2018-05-29T17:00:06.633Z,31.30
2018-05-29T17:03:20.211Z,31.40
2018-05-29T17:06:22.896Z,31.27
2018-05-29T17:09:29.349Z,31.28
2018-05-29T17:12:51.488Z,31.10
2018-05-29T17:23:45.955Z,30.87
2018-05-29T17:26:56.878Z,30.74
2018-05-29T17:30:19.050Z,30.67
2018-05-29T17:33:55.347Z,30.59
2018-05-29T17:36:58.271Z,30.45
2018-05-29T17:40:01.072Z,30.70
2018-05-29T17:43:20.026Z,30.49
2018-05-29T17:46:28.248Z,30.39
2018-05-29T17:49:34.602Z,30.35
2018-05-29T17:52:41.850Z,30.30
2018-05-29T17:55:45.522Z,30.21
2018-05-29T17:58:48.985Z,30.10
2018-05-29T18:13:18.312Z,29.78
2018-05-29T18:16:27.144Z,29.72
2018-05-29T18:19:30.037Z,29.56
2018-05-29T18:22:48.278Z,29.48
2018-05-29T18:25:55.028Z,29.44
2018-05-29T18:28:58.017Z,29.42
2018-05-29T18:32:05.013Z,29.24
2018-05-29T18:35:17.508Z,29.22
2018-05-29T18:38:39.682Z,29.05
2018-05-29T18:42:07.672Z,28.92
2018-05-29T18:49:45.607Z,28.66
2018-05-29T18:52:51.489Z,28.60
2018-05-29T18:56:00.719Z,28.46
2018-05-29T18:59:12.684Z,28.29
2018-05-29T19:02:18.240Z,28.23
2018-05-29T19:05:29.232Z,28.13
2018-05-29T19:08:36.704Z,27.98
2018-05-29T19:11:40.200Z,27.91
2018-05-29T19:14:43.315Z,27.75
2018-05-29T19:17:45.947Z,27.65
2018-05-29T19:20:48.695Z,27.71
2018-05-29T19:23:52.827Z,27.63
2018-05-29T19:26:56.858Z,27.47
2018-05-29T19:30:00.345Z,27.46
2018-05-29T19:36:34.938Z,27.22
2018-05-29T19:44:02.051Z,27.12
2018-05-29T19:47:05.702Z,26.91
2018-05-29T19:50:09.192Z,26.89
2018-05-29T19:53:15.421Z,26.81
2018-05-29T19:56:20.509Z,26.63
2018-05-29T19:59:23.470Z,26.67
2018-05-29T20:05:40.657Z,26.48
2018-05-29T20:08:49.801Z,26.51
2018-05-29T20:11:55.334Z,26.59
2018-05-29T20:15:03.513Z,26.49
2018-05-29T20:21:41.115Z,26.40
2018-05-29T20:24:44.996Z,26.30
2018-05-29T20:27:47.710Z,26.17
2018-05-29T20:48:43.718Z,25.77
2018-05-29T20:51:47.870Z,25.77
2018-05-29T20:54:52.467Z,25.81
2018-05-29T20:57:55.455Z,25.66
2018-05-29T21:00:58.144Z,25.56
2018-05-29T21:04:01.587Z,25.57
2018-05-29T21:07:05.293Z,25.52
2018-05-29T21:10:08.463Z,25.47
2018-05-29T21:13:13.060Z,25.46
2018-05-29T21:16:18.452Z,25.49
2018-05-29T21:19:22.135Z,25.35
2018-05-29T21:22:24.772Z,25.30
2018-05-29T21:25:28.796Z,25.38
2018-05-29T21:28:37.029Z,25.33
2018-05-29T21:31:39.742Z,25.32
2018-05-29T21:34:42.355Z,25.18
2018-05-29T21:37:46.835Z,25.20
2018-05-29T21:40:49.447Z,25.19
2018-05-29T21:43:52.066Z,25.13
2018-05-29T21:46:54.632Z,25.15
2018-05-29T21:49:59.593Z,25.05
2018-05-29T21:53:02.319Z,25.05
2018-05-29T21:56:04.878Z,25.10
2018-05-29T21:59:08.021Z,24.95
2018-05-29T22:02:12.431Z,24.90
2018-05-29T22:05:14.982Z,24.97
2018-05-29T22:08:24.560Z,24.89
2018-05-29T22:11:27.172Z,24.85
2018-05-29T22:14:30.480Z,24.87
2018-05-29T22:17:33.269Z,24.82
2018-05-29T22:20:43.410Z,24.72
2018-05-29T22:26:57.293Z,24.75
2018-05-29T22:30:03.665Z,24.58
2018-05-29T22:33:17.046Z,24.61
2018-05-29T22:36:25.207Z,24.56
2018-05-29T22:39:29.647Z,24.51
2018-05-29T22:42:32.219Z,24.39
2018-05-29T22:45:34.872Z,24.41
2018-05-29T22:48:40.273Z,24.46
2018-05-29T22:54:57.934Z,24.31
2018-05-29T22:58:00.503Z,24.39
2018-05-29T23:01:03.095Z,24.35
2018-05-29T23:04:15.452Z,24.21
2018-05-29T23:07:18.080Z,24.10
2018-05-29T23:10:20.737Z,24.12
2018-05-29T23:13:24.437Z,24.04
2018-05-29T23:16:27.079Z,24.24
2018-05-29T23:19:29.809Z,24.03
2018-05-29T23:22:34.080Z,23.92
2018-05-29T23:25:36.817Z,23.98
2018-05-29T23:28:40.500Z,23.77
2018-05-29T23:31:43.092Z,23.89
2018-05-29T23:34:47.370Z,23.93
2018-05-29T23:37:50.005Z,24.19
2018-05-29T23:40:53.680Z,24.43
2018-05-29T23:43:56.630Z,24.58
2018-05-29T23:46:59.174Z,24.63
2018-05-29T23:50:05.989Z,24.64
2018-05-29T23:53:08.563Z,24.76
2018-05-29T23:56:11.097Z,24.68
2018-05-29T23:59:13.672Z,24.66
